MDT,Max TemperatureF,Mean TemperatureF,Min TemperatureF,Max Dew PointF,MeanDew PointF,Min DewpointF,Max Humidity, Mean Humidity, Min Humidity, Max Sea Level PressureIn, Mean Sea Level PressureIn, Min Sea Level PressureIn, Max VisibilityMiles, Mean VisibilityMiles, Min VisibilityMiles, Max Wind SpeedMPH, Mean Wind SpeedMPH, Max Gust SpeedMPH,PrecipitationIn, CloudCover, Events, WindDirDegrees
2013-3-1,46,38,29,27,22,18,75,60,45,30.52,30.46,30.40,10,10,10,13,4,16,0.00,4,,131
2013-3-2,55,39,23,30,24,18,81,57,32,30.55,30.38,30.17,10,10,10,14,5,16,0.00,0,,139
2013-3-3,54,43,32,33,28,22,78,54,30,30.13,29.92,29.81,10,10,10,16,4,22,T,5,Rain,132
2013-3-4,52,39,25,38,30,16,100,67,33,30.23,29.91,29.77,10,10,3,35,8,43,0.13,5,Rain,110
2013-3-5,51,36,20,23,17,12,81,53,24,30.42,30.25,30.14,10,10,10,12,5,14,0.00,0,,125
2013-3-6,62,45,27,23,19,15,75,46,17,30.14,29.96,29.83,10,10,10,23,9,30,0.00,0,,177
2013-3-7,63,49,34,23,17,5,52,31,10,29.95,29.85,29.78,10,10,10,22,10,31,0.00,1,,133
2013-3-8,53,43,33,37,28,17,100,63,26,29.84,29.74,29.64,10,9,2,23,8,28,0.16,5,Rain-Snow,130
2013-3-9,36,33,30,33,29,23,100,80,59,30.09,29.85,29.59,10,7,1,17,6,20,0.01,7,Snow,354
2013-3-10,44,34,23,24,20,18,88,64,39,30.28,30.23,30.10,10,10,10,13,4,16,0.00,0,,142
2013-3-11,50,38,25,27,21,18,81,56,31,30.25,30.17,30.09,10,10,10,13,5,15,0.00,1,,131
2013-3-12,57,45,33,29,27,25,82,56,30,30.27,30.19,30.12,10,10,10,15,5,30,0.00,2,,142
2013-3-13,62,46,29,29,24,16,78,48,17,30.37,30.30,30.25,10,10,10,16,5,18,0.00,0,,147
2013-3-14,69,50,31,26,22,14,69,41,13,30.38,30.28,30.18,10,10,10,13,5,15,0.00,0,,129
2013-3-15,69,52,34,31,26,20,64,40,16,30.17,30.03,29.88,10,10,10,12,5,14,0.00,0,,134
2013-3-16,54,44,33,40,34,28,89,68,46,30.05,29.87,29.79,10,10,5,29,9,33,0.06,4,Rain-Thunderstorm,116
2013-3-17,59,45,31,32,21,7,92,54,15,29.88,29.75,29.64,10,10,7,36,12,43,0.00,2,,262
2013-3-18,54,39,24,17,12,4,68,41,13,30.00,29.95,29.88,10,10,10,24,7,29,0.00,1,,154
2013-3-19,54,44,33,22,11,-4,61,35,9,30.20,30.09,29.98,10,10,10,14,6,29,0.00,0,,123
2013-3-20,55,40,25,31,18,11,62,43,24,30.19,30.05,29.85,10,10,10,18,6,23,0.00,3,,160
2013-3-21,53,41,29,37,27,3,92,54,15,29.90,29.74,29.62,10,10,4,31,10,37,0.06,4,Rain-Thunderstorm,248
2013-3-22,57,41,25,17,10,-4,68,39,9,29.86,29.73,29.53,10,10,9,33,13,41,0.00,1,,268
2013-3-23,36,28,19,18,8,3,68,49,29,30.18,29.98,29.78,10,10,10,29,13,37,0.00,4,,307
2013-3-24,40,27,14,7,5,-1,67,43,19,30.22,30.16,30.07,10,10,10,23,8,28,0.00,1,,110
2013-3-25,45,30,14,9,3,-11,73,42,10,30.32,30.22,30.15,10,10,10,10,5,15,0.00,1,,137
2013-3-26,62,44,26,18,13,8,55,35,14,30.15,29.99,29.86,10,10,10,24,7,43,0.00,2,,176
2013-3-27,66,47,28,22,16,9,63,37,11,29.99,29.92,29.86,10,10,10,17,6,23,0.00,1,,174
2013-3-28,68,54,40,22,17,12,39,26,12,30.01,29.95,29.90,10,10,10,18,7,24,0.00,3,,186
2013-3-29,67,55,42,27,22,19,43,30,16,30.09,30.03,29.98,10,10,10,23,7,29,0.00,2,,162
2013-3-30,67,52,36,33,26,21,64,41,18,30.13,30.05,29.96,10,10,2,26,8,33,0.00,3,,48
2013-3-31,68,52,35,31,25,19,70,43,15,30.09,29.99,29.88,10,10,10,16,6,21,0.00,0,,118